sensor_id;sensor_type;location;lat;lon;timestamp;P1;durP1;ratioP1;P2;durP2;ratioP2
22186;SDS011;11259;52.146;12.844;2023-07-20T00:01:31;0.80;;;0.80;;
22186;SDS011;11259;52.146;12.844;2023-07-20T00:03:58;0.95;;;0.85;;
22186;SDS011;11259;52.146;12.844;2023-07-20T00:06:23;2.72;;;1.45;;
22186;SDS011;11259;52.146;12.844;2023-07-20T00:08:49;0.65;;;0.65;;
22186;SDS011;11259;52.146;12.844;2023-07-20T00:11:14;0.70;;;0.70;;
22186;SDS011;11259;52.146;12.844;2023-07-20T00:13:41;0.73;;;0.73;;
22186;SDS011;11259;52.146;12.844;2023-07-20T00:16:06;2.95;;;1.30;;
22186;SDS011;11259;52.146;12.844;2023-07-20T00:18:32;0.80;;;0.80;;
22186;SDS011;11259;52.146;12.844;2023-07-20T00:20:58;0.75;;;0.75;;
22186;SDS011;11259;52.146;12.844;2023-07-20T00:23:24;0.63;;;0.63;;
22186;SDS011;11259;52.146;12.844;2023-07-20T00:25:49;1.80;;;0.80;;
22186;SDS011;11259;52.146;12.844;2023-07-20T00:28:14;2.38;;;0.70;;
22186;SDS011;11259;52.146;12.844;2023-07-20T00:30:40;0.85;;;0.85;;
22186;SDS011;11259;52.146;12.844;2023-07-20T00:33:06;1.10;;;1.00;;
22186;SDS011;11259;52.146;12.844;2023-07-20T00:35:31;1.52;;;0.75;;
22186;SDS011;11259;52.146;12.844;2023-07-20T00:37:58;0.70;;;0.70;;
22186;SDS011;11259;52.146;12.844;2023-07-20T00:40:23;0.80;;;0.80;;
22186;SDS011;11259;52.146;12.844;2023-07-20T00:42:49;0.70;;;0.60;;
22186;SDS011;11259;52.146;12.844;2023-07-20T00:45:14;1.02;;;0.90;;
22186;SDS011;11259;52.146;12.844;2023-07-20T00:47:39;0.60;;;0.60;;
22186;SDS011;11259;52.146;12.844;2023-07-20T00:50:05;1.02;;;0.80;;
22186;SDS011;11259;52.146;12.844;2023-07-20T00:52:31;1.20;;;1.10;;
22186;SDS011;11259;52.146;12.844;2023-07-20T00:55:00;0.98;;;0.85;;
22186;SDS011;11259;52.146;12.844;2023-07-20T00:57:25;0.77;;;0.77;;
22186;SDS011;11259;52.146;12.844;2023-07-20T00:59:51;1.45;;;0.93;;
22186;SDS011;11259;52.146;12.844;2023-07-20T01:02:17;0.70;;;0.70;;
22186;SDS011;11259;52.146;12.844;2023-07-20T01:04:42;0.80;;;0.80;;
22186;SDS011;11259;52.146;12.844;2023-07-20T01:07:09;0.70;;;0.70;;
22186;SDS011;11259;52.146;12.844;2023-07-20T01:09:37;0.70;;;0.70;;
22186;SDS011;11259;52.146;12.844;2023-07-20T01:12:08;1.02;;;1.00;;
22186;SDS011;11259;52.146;12.844;2023-07-20T01:14:37;0.70;;;0.70;;
22186;SDS011;11259;52.146;12.844;2023-07-20T01:17:03;1.00;;;0.90;;
22186;SDS011;11259;52.146;12.844;2023-07-20T01:19:28;1.00;;;0.90;;
22186;SDS011;11259;52.146;12.844;2023-07-20T01:21:55;1.02;;;0.95;;
22186;SDS011;11259;52.146;12.844;2023-07-20T01:24:39;0.60;;;0.60;;
22186;SDS011;11259;52.146;12.844;2023-07-20T01:30:25;0.68;;;0.68;;
22186;SDS011;11259;52.146;12.844;2023-07-20T01:33:12;0.80;;;0.80;;
22186;SDS011;11259;52.146;12.844;2023-07-20T01:35:38;1.02;;;0.93;;
22186;SDS011;11259;52.146;12.844;2023-07-20T01:38:05;0.75;;;0.75;;
22186;SDS011;11259;52.146;12.844;2023-07-20T01:40:31;1.15;;;0.80;;
22186;SDS011;11259;52.146;12.844;2023-07-20T01:42:56;0.70;;;0.70;;
22186;SDS011;11259;52.146;12.844;2023-07-20T01:45:21;1.45;;;1.10;;
22186;SDS011;11259;52.146;12.844;2023-07-20T01:47:47;1.15;;;0.88;;
22186;SDS011;11259;52.146;12.844;2023-07-20T01:50:13;1.10;;;1.02;;
22186;SDS011;11259;52.146;12.844;2023-07-20T01:52:39;2.00;;;1.00;;
22186;SDS011;11259;52.146;12.844;2023-07-20T01:55:04;1.42;;;1.08;;
22186;SDS011;11259;52.146;12.844;2023-07-20T01:57:31;0.85;;;0.85;;
22186;SDS011;11259;52.146;12.844;2023-07-20T01:59:56;0.90;;;0.90;;
22186;SDS011;11259;52.146;12.844;2023-07-20T02:02:23;1.27;;;0.90;;
22186;SDS011;11259;52.146;12.844;2023-07-20T02:04:51;1.10;;;1.00;;
22186;SDS011;11259;52.146;12.844;2023-07-20T02:07:17;0.90;;;0.90;;
22186;SDS011;11259;52.146;12.844;2023-07-20T02:09:42;1.00;;;0.90;;
22186;SDS011;11259;52.146;12.844;2023-07-20T02:12:08;1.05;;;0.95;;
22186;SDS011;11259;52.146;12.844;2023-07-20T02:14:34;0.88;;;0.88;;
22186;SDS011;11259;52.146;12.844;2023-07-20T02:16:59;0.95;;;0.93;;
22186;SDS011;11259;52.146;12.844;2023-07-20T02:19:24;1.88;;;1.17;;
22186;SDS011;11259;52.146;12.844;2023-07-20T02:21:50;1.60;;;1.50;;
22186;SDS011;11259;52.146;12.844;2023-07-20T02:24:16;1.58;;;1.48;;
22186;SDS011;11259;52.146;12.844;2023-07-20T02:26:42;2.25;;;2.03;;
22186;SDS011;11259;52.146;12.844;2023-07-20T02:29:07;1.70;;;1.30;;
22186;SDS011;11259;52.146;12.844;2023-07-20T02:31:32;4.20;;;2.10;;
22186;SDS011;11259;52.146;12.844;2023-07-20T02:33:58;1.90;;;1.45;;
22186;SDS011;11259;52.146;12.844;2023-07-20T02:36:23;1.85;;;1.70;;
22186;SDS011;11259;52.146;12.844;2023-07-20T02:38:48;1.73;;;1.63;;
22186;SDS011;11259;52.146;12.844;2023-07-20T02:41:15;1.85;;;1.73;;
22186;SDS011;11259;52.146;12.844;2023-07-20T02:43:40;2.75;;;1.67;;
22186;SDS011;11259;52.146;12.844;2023-07-20T02:46:05;2.15;;;1.92;;
22186;SDS011;11259;52.146;12.844;2023-07-20T02:48:31;2.72;;;2.30;;
22186;SDS011;11259;52.146;12.844;2023-07-20T02:50:56;1.95;;;1.77;;
22186;SDS011;11259;52.146;12.844;2023-07-20T02:53:21;2.60;;;2.15;;
22186;SDS011;11259;52.146;12.844;2023-07-20T02:55:47;2.03;;;1.73;;
22186;SDS011;11259;52.146;12.844;2023-07-20T02:58:13;2.35;;;1.90;;
22186;SDS011;11259;52.146;12.844;2023-07-20T03:00:39;1.92;;;1.73;;
22186;SDS011;11259;52.146;12.844;2023-07-20T03:03:04;1.65;;;1.55;;
22186;SDS011;11259;52.146;12.844;2023-07-20T03:05:29;1.58;;;1.48;;
22186;SDS011;11259;52.146;12.844;2023-07-20T03:07:55;1.70;;;1.35;;
22186;SDS011;11259;52.146;12.844;2023-07-20T03:10:20;1.90;;;1.40;;
22186;SDS011;11259;52.146;12.844;2023-07-20T03:12:45;2.22;;;1.52;;
22186;SDS011;11259;52.146;12.844;2023-07-20T03:15:12;2.13;;;1.90;;
22186;SDS011;11259;52.146;12.844;2023-07-20T03:17:38;2.42;;;1.88;;
22186;SDS011;11259;52.146;12.844;2023-07-20T03:20:03;1.30;;;1.20;;
22186;SDS011;11259;52.146;12.844;2023-07-20T03:22:29;2.10;;;1.67;;
22186;SDS011;11259;52.146;12.844;2023-07-20T03:24:55;2.00;;;1.80;;
22186;SDS011;11259;52.146;12.844;2023-07-20T03:27:20;1.77;;;1.65;;
22186;SDS011;11259;52.146;12.844;2023-07-20T03:29:45;2.00;;;1.50;;
22186;SDS011;11259;52.146;12.844;2023-07-20T03:32:12;2.05;;;1.88;;
22186;SDS011;11259;52.146;12.844;2023-07-20T03:34:37;1.95;;;1.75;;
22186;SDS011;11259;52.146;12.844;2023-07-20T03:37:03;1.90;;;1.48;;
22186;SDS011;11259;52.146;12.844;2023-07-20T03:39:28;1.98;;;1.77;;
22186;SDS011;11259;52.146;12.844;2023-07-20T03:41:54;1.90;;;1.80;;
22186;SDS011;11259;52.146;12.844;2023-07-20T03:44:19;1.73;;;1.55;;
22186;SDS011;11259;52.146;12.844;2023-07-20T03:46:44;3.00;;;2.00;;
22186;SDS011;11259;52.146;12.844;2023-07-20T03:49:11;1.65;;;1.45;;
22186;SDS011;11259;52.146;12.844;2023-07-20T03:51:36;2.60;;;1.77;;
22186;SDS011;11259;52.146;12.844;2023-07-20T03:54:02;4.38;;;2.17;;
22186;SDS011;11259;52.146;12.844;2023-07-20T03:56:27;2.78;;;1.85;;
22186;SDS011;11259;52.146;12.844;2023-07-20T03:58:53;1.75;;;1.65;;
22186;SDS011;11259;52.146;12.844;2023-07-20T04:01:18;1.65;;;1.55;;
22186;SDS011;11259;52.146;12.844;2023-07-20T04:03:43;1.70;;;1.58;;
22186;SDS011;11259;52.146;12.844;2023-07-20T04:06:10;1.70;;;1.60;;
22186;SDS011;11259;52.146;12.844;2023-07-20T04:08:35;1.60;;;1.50;;
22186;SDS011;11259;52.146;12.844;2023-07-20T04:11:01;2.08;;;1.75;;
22186;SDS011;11259;52.146;12.844;2023-07-20T04:13:26;2.65;;;1.48;;
22186;SDS011;11259;52.146;12.844;2023-07-20T04:15:52;3.55;;;2.13;;
22186;SDS011;11259;52.146;12.844;2023-07-20T04:18:17;2.20;;;1.98;;
22186;SDS011;11259;52.146;12.844;2023-07-20T04:20:42;2.08;;;1.88;;
22186;SDS011;11259;52.146;12.844;2023-07-20T04:23:09;1.67;;;1.55;;
22186;SDS011;11259;52.146;12.844;2023-07-20T04:25:34;2.30;;;2.10;;
22186;SDS011;11259;52.146;12.844;2023-07-20T04:28:00;3.67;;;2.13;;
22186;SDS011;11259;52.146;12.844;2023-07-20T04:30:25;2.08;;;1.75;;
22186;SDS011;11259;52.146;12.844;2023-07-20T04:32:50;2.17;;;1.92;;
22186;SDS011;11259;52.146;12.844;2023-07-20T04:35:17;1.95;;;1.73;;
22186;SDS011;11259;52.146;12.844;2023-07-20T04:37:43;3.42;;;2.28;;
22186;SDS011;11259;52.146;12.844;2023-07-20T04:40:10;2.20;;;2.00;;
22186;SDS011;11259;52.146;12.844;2023-07-20T04:42:36;2.35;;;1.88;;
22186;SDS011;11259;52.146;12.844;2023-07-20T04:45:01;1.65;;;1.30;;
22186;SDS011;11259;52.146;12.844;2023-07-20T04:47:27;2.65;;;2.10;;
22186;SDS011;11259;52.146;12.844;2023-07-20T04:49:52;1.92;;;1.63;;
22186;SDS011;11259;52.146;12.844;2023-07-20T04:52:18;2.42;;;1.50;;
22186;SDS011;11259;52.146;12.844;2023-07-20T04:54:43;2.60;;;2.10;;
22186;SDS011;11259;52.146;12.844;2023-07-20T04:57:11;2.20;;;2.00;;
22186;SDS011;11259;52.146;12.844;2023-07-20T04:59:36;3.70;;;2.05;;
22186;SDS011;11259;52.146;12.844;2023-07-20T05:02:02;1.70;;;1.60;;
22186;SDS011;11259;52.146;12.844;2023-07-20T05:04:27;5.35;;;2.60;;
22186;SDS011;11259;52.146;12.844;2023-07-20T05:06:52;1.70;;;1.58;;
22186;SDS011;11259;52.146;12.844;2023-07-20T05:09:17;2.10;;;1.65;;
22186;SDS011;11259;52.146;12.844;2023-07-20T05:11:43;2.83;;;2.35;;
22186;SDS011;11259;52.146;12.844;2023-07-20T05:14:09;4.95;;;2.60;;
22186;SDS011;11259;52.146;12.844;2023-07-20T05:16:35;2.80;;;2.05;;
22186;SDS011;11259;52.146;12.844;2023-07-20T05:19:00;2.20;;;1.70;;
22186;SDS011;11259;52.146;12.844;2023-07-20T05:21:25;1.60;;;1.50;;
22186;SDS011;11259;52.146;12.844;2023-07-20T05:23:51;2.17;;;1.88;;
22186;SDS011;11259;52.146;12.844;2023-07-20T05:26:16;3.42;;;2.10;;
22186;SDS011;11259;52.146;12.844;2023-07-20T05:28:41;2.17;;;1.70;;
22186;SDS011;11259;52.146;12.844;2023-07-20T05:31:08;1.90;;;1.75;;
22186;SDS011;11259;52.146;12.844;2023-07-20T05:33:33;2.47;;;1.90;;
22186;SDS011;11259;52.146;12.844;2023-07-20T05:35:59;2.80;;;2.08;;
22186;SDS011;11259;52.146;12.844;2023-07-20T05:38:24;2.38;;;2.17;;
22186;SDS011;11259;52.146;12.844;2023-07-20T05:40:49;1.77;;;1.65;;
22186;SDS011;11259;52.146;12.844;2023-07-20T05:43:14;1.48;;;1.23;;
22186;SDS011;11259;52.146;12.844;2023-07-20T05:45:41;1.95;;;1.48;;
22186;SDS011;11259;52.146;12.844;2023-07-20T05:48:08;1.52;;;1.42;;
22186;SDS011;11259;52.146;12.844;2023-07-20T05:50:33;1.88;;;1.27;;
22186;SDS011;11259;52.146;12.844;2023-07-20T05:52:58;7.97;;;1.92;;
22186;SDS011;11259;52.146;12.844;2023-07-20T05:55:24;4.70;;;1.48;;
22186;SDS011;11259;52.146;12.844;2023-07-20T05:57:49;1.70;;;1.50;;
22186;SDS011;11259;52.146;12.844;2023-07-20T06:00:15;2.05;;;1.70;;
22186;SDS011;11259;52.146;12.844;2023-07-20T06:02:40;2.53;;;1.50;;
22186;SDS011;11259;52.146;12.844;2023-07-20T06:05:08;2.05;;;1.27;;
22186;SDS011;11259;52.146;12.844;2023-07-20T06:07:33;1.20;;;1.10;;
22186;SDS011;11259;52.146;12.844;2023-07-20T06:09:59;1.15;;;1.05;;
22186;SDS011;11259;52.146;12.844;2023-07-20T06:12:24;1.20;;;1.00;;
22186;SDS011;11259;52.146;12.844;2023-07-20T06:14:49;2.28;;;1.52;;
22186;SDS011;11259;52.146;12.844;2023-07-20T06:17:15;1.15;;;1.05;;
22186;SDS011;11259;52.146;12.844;2023-07-20T06:19:40;1.40;;;1.30;;
22186;SDS011;11259;52.146;12.844;2023-07-20T06:22:07;2.58;;;1.17;;
22186;SDS011;11259;52.146;12.844;2023-07-20T06:24:32;0.90;;;0.90;;
22186;SDS011;11259;52.146;12.844;2023-07-20T06:26:57;1.88;;;1.38;;
22186;SDS011;11259;52.146;12.844;2023-07-20T06:29:23;0.93;;;0.80;;
22186;SDS011;11259;52.146;12.844;2023-07-20T06:31:48;1.35;;;1.10;;
22186;SDS011;11259;52.146;12.844;2023-07-20T06:34:13;1.48;;;1.10;;
22186;SDS011;11259;52.146;12.844;2023-07-20T06:36:39;1.10;;;1.00;;
22186;SDS011;11259;52.146;12.844;2023-07-20T06:39:05;1.10;;;1.00;;
22186;SDS011;11259;52.146;12.844;2023-07-20T06:41:31;0.93;;;0.82;;
22186;SDS011;11259;52.146;12.844;2023-07-20T06:43:56;1.77;;;0.93;;
22186;SDS011;11259;52.146;12.844;2023-07-20T06:46:21;1.10;;;1.00;;
22186;SDS011;11259;52.146;12.844;2023-07-20T06:48:46;0.90;;;0.90;;
22186;SDS011;11259;52.146;12.844;2023-07-20T06:51:12;0.98;;;0.90;;
22186;SDS011;11259;52.146;12.844;2023-07-20T06:53:37;0.70;;;0.70;;
22186;SDS011;11259;52.146;12.844;2023-07-20T06:56:04;0.70;;;0.70;;
22186;SDS011;11259;52.146;12.844;2023-07-20T06:58:29;2.25;;;0.73;;
22186;SDS011;11259;52.146;12.844;2023-07-20T07:00:54;1.15;;;1.00;;
22186;SDS011;11259;52.146;12.844;2023-07-20T07:03:20;0.70;;;0.50;;
22186;SDS011;11259;52.146;12.844;2023-07-20T07:05:45;0.60;;;0.60;;
22186;SDS011;11259;52.146;12.844;2023-07-20T07:08:10;1.27;;;1.10;;
22186;SDS011;11259;52.146;12.844;2023-07-20T07:10:36;0.52;;;0.52;;
22186;SDS011;11259;52.146;12.844;2023-07-20T07:13:03;1.30;;;0.63;;
22186;SDS011;11259;52.146;12.844;2023-07-20T07:15:28;2.10;;;0.77;;
22186;SDS011;11259;52.146;12.844;2023-07-20T07:17:53;0.50;;;0.50;;
22186;SDS011;11259;52.146;12.844;2023-07-20T07:20:19;0.68;;;0.68;;
22186;SDS011;11259;52.146;12.844;2023-07-20T07:22:44;0.68;;;0.68;;
22186;SDS011;11259;52.146;12.844;2023-07-20T07:25:09;0.50;;;0.50;;
22186;SDS011;11259;52.146;12.844;2023-07-20T07:27:35;1.45;;;0.75;;
22186;SDS011;11259;52.146;12.844;2023-07-20T07:30:02;0.82;;;0.82;;
22186;SDS011;11259;52.146;12.844;2023-07-20T07:32:27;0.50;;;0.50;;
22186;SDS011;11259;52.146;12.844;2023-07-20T07:34:53;0.63;;;0.63;;
22186;SDS011;11259;52.146;12.844;2023-07-20T07:37:18;0.65;;;0.65;;
22186;SDS011;11259;52.146;12.844;2023-07-20T07:39:43;0.70;;;0.68;;
22186;SDS011;11259;52.146;12.844;2023-07-20T07:42:09;0.70;;;0.70;;
22186;SDS011;11259;52.146;12.844;2023-07-20T07:44:34;1.88;;;0.93;;
22186;SDS011;11259;52.146;12.844;2023-07-20T07:47:01;0.50;;;0.50;;
22186;SDS011;11259;52.146;12.844;2023-07-20T07:49:26;0.63;;;0.57;;
22186;SDS011;11259;52.146;12.844;2023-07-20T07:51:52;0.80;;;0.70;;
22186;SDS011;11259;52.146;12.844;2023-07-20T07:54:17;0.70;;;0.70;;
22186;SDS011;11259;52.146;12.844;2023-07-20T07:56:42;0.95;;;0.80;;
22186;SDS011;11259;52.146;12.844;2023-07-20T07:59:08;0.60;;;0.60;;
22186;SDS011;11259;52.146;12.844;2023-07-20T08:01:33;0.85;;;0.65;;
22186;SDS011;11259;52.146;12.844;2023-07-20T08:03:59;0.50;;;0.50;;
22186;SDS011;11259;52.146;12.844;2023-07-20T08:06:25;0.77;;;0.75;;
22186;SDS011;11259;52.146;12.844;2023-07-20T08:08:50;2.38;;;0.95;;
22186;SDS011;11259;52.146;12.844;2023-07-20T08:11:15;1.17;;;0.60;;
22186;SDS011;11259;52.146;12.844;2023-07-20T08:13:41;0.70;;;0.70;;
22186;SDS011;11259;52.146;12.844;2023-07-20T08:16:06;0.80;;;0.80;;
22186;SDS011;11259;52.146;12.844;2023-07-20T08:18:31;0.63;;;0.63;;
22186;SDS011;11259;52.146;12.844;2023-07-20T08:20:58;0.63;;;0.63;;
22186;SDS011;11259;52.146;12.844;2023-07-20T08:23:23;1.45;;;0.80;;
22186;SDS011;11259;52.146;12.844;2023-07-20T08:25:49;0.85;;;0.85;;
22186;SDS011;11259;52.146;12.844;2023-07-20T08:28:14;0.88;;;0.88;;
22186;SDS011;11259;52.146;12.844;2023-07-20T08:30:40;0.70;;;0.70;;
22186;SDS011;11259;52.146;12.844;2023-07-20T08:33:06;0.68;;;0.68;;
22186;SDS011;11259;52.146;12.844;2023-07-20T08:35:31;0.70;;;0.70;;
22186;SDS011;11259;52.146;12.844;2023-07-20T08:37:58;0.95;;;0.80;;
22186;SDS011;11259;52.146;12.844;2023-07-20T08:40:23;0.60;;;0.60;;
22186;SDS011;11259;52.146;12.844;2023-07-20T08:42:49;0.63;;;0.63;;
22186;SDS011;11259;52.146;12.844;2023-07-20T08:45:14;0.77;;;0.70;;
22186;SDS011;11259;52.146;12.844;2023-07-20T08:47:41;0.43;;;0.43;;
22186;SDS011;11259;52.146;12.844;2023-07-20T08:50:07;0.85;;;0.75;;
22186;SDS011;11259;52.146;12.844;2023-07-20T08:52:33;0.80;;;0.80;;
22186;SDS011;11259;52.146;12.844;2023-07-20T08:55:00;0.63;;;0.63;;
22186;SDS011;11259;52.146;12.844;2023-07-20T08:57:26;0.50;;;0.50;;
22186;SDS011;11259;52.146;12.844;2023-07-20T08:59:51;0.52;;;0.52;;
22186;SDS011;11259;52.146;12.844;2023-07-20T09:02:17;0.60;;;0.60;;
22186;SDS011;11259;52.146;12.844;2023-07-20T09:04:44;2.88;;;1.17;;
22186;SDS011;11259;52.146;12.844;2023-07-20T09:07:09;0.55;;;0.55;;
22186;SDS011;11259;52.146;12.844;2023-07-20T09:09:39;0.52;;;0.52;;
22186;SDS011;11259;52.146;12.844;2023-07-20T09:12:06;0.50;;;0.50;;
22186;SDS011;11259;52.146;12.844;2023-07-20T09:14:38;0.55;;;0.55;;
22186;SDS011;11259;52.146;12.844;2023-07-20T09:17:03;0.40;;;0.40;;
22186;SDS011;11259;52.146;12.844;2023-07-20T09:19:29;1.40;;;0.98;;
22186;SDS011;11259;52.146;12.844;2023-07-20T09:21:54;0.50;;;0.50;;
22186;SDS011;11259;52.146;12.844;2023-07-20T09:24:20;0.60;;;0.60;;
22186;SDS011;11259;52.146;12.844;2023-07-20T09:26:47;0.30;;;0.30;;
22186;SDS011;11259;52.146;12.844;2023-07-20T09:29:14;0.30;;;0.30;;
22186;SDS011;11259;52.146;12.844;2023-07-20T09:31:42;3.85;;;0.60;;
22186;SDS011;11259;52.146;12.844;2023-07-20T09:34:08;0.50;;;0.50;;
22186;SDS011;11259;52.146;12.844;2023-07-20T09:36:34;0.50;;;0.50;;
22186;SDS011;11259;52.146;12.844;2023-07-20T09:39:00;2.25;;;0.70;;
22186;SDS011;11259;52.146;12.844;2023-07-20T09:41:26;0.43;;;0.43;;
22186;SDS011;11259;52.146;12.844;2023-07-20T09:43:51;1.30;;;0.60;;
22186;SDS011;11259;52.146;12.844;2023-07-20T09:46:18;0.50;;;0.50;;
22186;SDS011;11259;52.146;12.844;2023-07-20T09:48:48;0.95;;;0.85;;
22186;SDS011;11259;52.146;12.844;2023-07-20T09:51:16;0.40;;;0.40;;
22186;SDS011;11259;52.146;12.844;2023-07-20T09:53:42;0.40;;;0.40;;
22186;SDS011;11259;52.146;12.844;2023-07-20T09:56:08;6.38;;;1.23;;
22186;SDS011;11259;52.146;12.844;2023-07-20T09:58:33;5.80;;;0.70;;
22186;SDS011;11259;52.146;12.844;2023-07-20T10:00:59;0.45;;;0.45;;
22186;SDS011;11259;52.146;12.844;2023-07-20T10:03:28;4.57;;;0.65;;
22186;SDS011;11259;52.146;12.844;2023-07-20T10:05:56;0.50;;;0.50;;
22186;SDS011;11259;52.146;12.844;2023-07-20T10:08:23;4.32;;;1.00;;
22186;SDS011;11259;52.146;12.844;2023-07-20T10:10:50;1.30;;;0.82;;
22186;SDS011;11259;52.146;12.844;2023-07-20T10:13:17;0.77;;;0.50;;
22186;SDS011;11259;52.146;12.844;2023-07-20T10:15:44;0.55;;;0.55;;
22186;SDS011;11259;52.146;12.844;2023-07-20T10:18:12;0.40;;;0.40;;
22186;SDS011;11259;52.146;12.844;2023-07-20T10:20:52;0.30;;;0.30;;
22186;SDS011;11259;52.146;12.844;2023-07-20T10:23:19;0.40;;;0.40;;
22186;SDS011;11259;52.146;12.844;2023-07-20T10:25:44;0.40;;;0.40;;
22186;SDS011;11259;52.146;12.844;2023-07-20T10:28:10;0.32;;;0.32;;
22186;SDS011;11259;52.146;12.844;2023-07-20T10:30:36;0.40;;;0.40;;
22186;SDS011;11259;52.146;12.844;2023-07-20T10:33:01;0.70;;;0.50;;
22186;SDS011;11259;52.146;12.844;2023-07-20T10:35:27;4.25;;;1.15;;
22186;SDS011;11259;52.146;12.844;2023-07-20T10:37:54;1.10;;;0.68;;
22186;SDS011;11259;52.146;12.844;2023-07-20T10:40:23;0.32;;;0.32;;
22186;SDS011;11259;52.146;12.844;2023-07-20T10:42:56;0.52;;;0.52;;
22186;SDS011;11259;52.146;12.844;2023-07-20T10:45:29;0.85;;;0.52;;
22186;SDS011;11259;52.146;12.844;2023-07-20T10:47:58;0.30;;;0.30;;
22186;SDS011;11259;52.146;12.844;2023-07-20T10:50:23;0.68;;;0.65;;
22186;SDS011;11259;52.146;12.844;2023-07-20T10:53:01;0.30;;;0.30;;
22186;SDS011;11259;52.146;12.844;2023-07-20T10:55:29;1.40;;;1.13;;
22186;SDS011;11259;52.146;12.844;2023-07-20T10:58:07;3.85;;;1.40;;
22186;SDS011;11259;52.146;12.844;2023-07-20T11:00:33;2.38;;;1.58;;
22186;SDS011;11259;52.146;12.844;2023-07-20T11:02:58;0.73;;;0.60;;
22186;SDS011;11259;52.146;12.844;2023-07-20T11:05:34;0.93;;;0.57;;
22186;SDS011;11259;52.146;12.844;2023-07-20T11:08:01;0.73;;;0.57;;
22186;SDS011;11259;52.146;12.844;2023-07-20T11:10:28;2.42;;;1.77;;
22186;SDS011;11259;52.146;12.844;2023-07-20T11:16:01;0.40;;;0.40;;
22186;SDS011;11259;52.146;12.844;2023-07-20T11:18:27;0.40;;;0.40;;
22186;SDS011;11259;52.146;12.844;2023-07-20T11:20:53;0.40;;;0.40;;
22186;SDS011;11259;52.146;12.844;2023-07-20T11:23:20;0.40;;;0.40;;
22186;SDS011;11259;52.146;12.844;2023-07-20T11:25:46;1.67;;;1.52;;
22186;SDS011;11259;52.146;12.844;2023-07-20T11:28:11;0.73;;;0.73;;
22186;SDS011;11259;52.146;12.844;2023-07-20T11:30:36;0.40;;;0.40;;
22186;SDS011;11259;52.146;12.844;2023-07-20T11:33:02;0.40;;;0.40;;
22186;SDS011;11259;52.146;12.844;2023-07-20T11:35:27;0.30;;;0.30;;
22186;SDS011;11259;52.146;12.844;2023-07-20T11:37:53;3.72;;;0.82;;
22186;SDS011;11259;52.146;12.844;2023-07-20T11:40:19;0.30;;;0.30;;
22186;SDS011;11259;52.146;12.844;2023-07-20T11:42:45;0.80;;;0.38;;
22186;SDS011;11259;52.146;12.844;2023-07-20T11:45:10;0.30;;;0.30;;
22186;SDS011;11259;52.146;12.844;2023-07-20T11:47:39;0.40;;;0.40;;
22186;SDS011;11259;52.146;12.844;2023-07-20T11:50:05;0.20;;;0.20;;
22186;SDS011;11259;52.146;12.844;2023-07-20T11:52:31;0.55;;;0.40;;
22186;SDS011;11259;52.146;12.844;2023-07-20T11:54:57;0.60;;;0.47;;
22186;SDS011;11259;52.146;12.844;2023-07-20T11:57:24;0.30;;;0.30;;
22186;SDS011;11259;52.146;12.844;2023-07-20T11:59:52;0.32;;;0.32;;
22186;SDS011;11259;52.146;12.844;2023-07-20T12:02:18;0.30;;;0.30;;
22186;SDS011;11259;52.146;12.844;2023-07-20T12:04:43;0.30;;;0.30;;
22186;SDS011;11259;52.146;12.844;2023-07-20T12:07:08;0.30;;;0.30;;
22186;SDS011;11259;52.146;12.844;2023-07-20T12:09:34;0.50;;;0.50;;
22186;SDS011;11259;52.146;12.844;2023-07-20T12:11:59;0.40;;;0.40;;
22186;SDS011;11259;52.146;12.844;2023-07-20T12:14:26;0.40;;;0.40;;
22186;SDS011;11259;52.146;12.844;2023-07-20T12:16:52;0.40;;;0.40;;
22186;SDS011;11259;52.146;12.844;2023-07-20T12:19:18;0.40;;;0.40;;
22186;SDS011;11259;52.146;12.844;2023-07-20T12:21:43;0.30;;;0.30;;
22186;SDS011;11259;52.146;12.844;2023-07-20T12:24:08;3.15;;;0.57;;
22186;SDS011;11259;52.146;12.844;2023-07-20T12:26:35;0.60;;;0.60;;
22186;SDS011;11259;52.146;12.844;2023-07-20T12:29:01;0.40;;;0.40;;
22186;SDS011;11259;52.146;12.844;2023-07-20T12:31:28;1.10;;;0.57;;
22186;SDS011;11259;52.146;12.844;2023-07-20T12:33:53;8.55;;;1.77;;
22186;SDS011;11259;52.146;12.844;2023-07-20T12:36:19;0.43;;;0.43;;
22186;SDS011;11259;52.146;12.844;2023-07-20T12:38:44;0.50;;;0.50;;
22186;SDS011;11259;52.146;12.844;2023-07-20T12:41:10;0.38;;;0.38;;
22186;SDS011;11259;52.146;12.844;2023-07-20T12:43:36;0.68;;;0.47;;
22186;SDS011;11259;52.146;12.844;2023-07-20T12:46:01;0.30;;;0.30;;
22186;SDS011;11259;52.146;12.844;2023-07-20T12:48:28;0.50;;;0.50;;
22186;SDS011;11259;52.146;12.844;2023-07-20T12:50:53;0.32;;;0.32;;
22186;SDS011;11259;52.146;12.844;2023-07-20T12:53:19;0.35;;;0.35;;
22186;SDS011;11259;52.146;12.844;2023-07-20T12:55:44;0.32;;;0.32;;
22186;SDS011;11259;52.146;12.844;2023-07-20T12:58:09;0.40;;;0.40;;
22186;SDS011;11259;52.146;12.844;2023-07-20T13:00:35;0.38;;;0.38;;
22186;SDS011;11259;52.146;12.844;2023-07-20T13:03:00;0.65;;;0.65;;
22186;SDS011;11259;52.146;12.844;2023-07-20T13:05:27;0.50;;;0.50;;
22186;SDS011;11259;52.146;12.844;2023-07-20T13:07:52;0.30;;;0.30;;
22186;SDS011;11259;52.146;12.844;2023-07-20T13:10:17;1.17;;;0.30;;
22186;SDS011;11259;52.146;12.844;2023-07-20T13:12:43;0.40;;;0.40;;
22186;SDS011;11259;52.146;12.844;2023-07-20T13:15:08;0.30;;;0.30;;
22186;SDS011;11259;52.146;12.844;2023-07-20T13:17:35;0.60;;;0.60;;
22186;SDS011;11259;52.146;12.844;2023-07-20T13:20:01;0.40;;;0.40;;
22186;SDS011;11259;52.146;12.844;2023-07-20T13:22:28;0.85;;;0.50;;
22186;SDS011;11259;52.146;12.844;2023-07-20T13:24:53;0.35;;;0.35;;
22186;SDS011;11259;52.146;12.844;2023-07-20T13:27:19;0.50;;;0.50;;
22186;SDS011;11259;52.146;12.844;2023-07-20T13:29:44;0.50;;;0.50;;
22186;SDS011;11259;52.146;12.844;2023-07-20T13:32:10;0.30;;;0.30;;
22186;SDS011;11259;52.146;12.844;2023-07-20T13:34:35;0.40;;;0.40;;
22186;SDS011;11259;52.146;12.844;2023-07-20T13:37:01;0.43;;;0.43;;
22186;SDS011;11259;52.146;12.844;2023-07-20T13:39:28;1.23;;;0.40;;
22186;SDS011;11259;52.146;12.844;2023-07-20T13:41:53;0.45;;;0.45;;
22186;SDS011;11259;52.146;12.844;2023-07-20T13:44:19;0.38;;;0.38;;
22186;SDS011;11259;52.146;12.844;2023-07-20T13:46:44;1.10;;;0.40;;
22186;SDS011;11259;52.146;12.844;2023-07-20T13:49:09;0.45;;;0.45;;
22186;SDS011;11259;52.146;12.844;2023-07-20T13:51:34;0.40;;;0.40;;
22186;SDS011;11259;52.146;12.844;2023-07-20T13:54:00;1.17;;;1.10;;
22186;SDS011;11259;52.146;12.844;2023-07-20T13:56:26;2.67;;;1.13;;
22186;SDS011;11259;52.146;12.844;2023-07-20T13:58:52;0.68;;;0.60;;
22186;SDS011;11259;52.146;12.844;2023-07-20T14:01:17;0.40;;;0.40;;
22186;SDS011;11259;52.146;12.844;2023-07-20T14:03:43;0.40;;;0.40;;
22186;SDS011;11259;52.146;12.844;2023-07-20T14:06:08;0.30;;;0.30;;
22186;SDS011;11259;52.146;12.844;2023-07-20T14:08:33;0.30;;;0.30;;
22186;SDS011;11259;52.146;12.844;2023-07-20T14:10:59;0.40;;;0.40;;
22186;SDS011;11259;52.146;12.844;2023-07-20T14:13:25;0.55;;;0.45;;
22186;SDS011;11259;52.146;12.844;2023-07-20T14:15:51;0.32;;;0.32;;
22186;SDS011;11259;52.146;12.844;2023-07-20T14:18:16;0.32;;;0.32;;
22186;SDS011;11259;52.146;12.844;2023-07-20T14:20:42;0.43;;;0.40;;
22186;SDS011;11259;52.146;12.844;2023-07-20T14:23:07;0.65;;;0.40;;
22186;SDS011;11259;52.146;12.844;2023-07-20T14:25:32;0.30;;;0.30;;
22186;SDS011;11259;52.146;12.844;2023-07-20T14:27:58;0.35;;;0.35;;
22186;SDS011;11259;52.146;12.844;2023-07-20T14:30:25;0.40;;;0.40;;
22186;SDS011;11259;52.146;12.844;2023-07-20T14:32:50;0.30;;;0.30;;